Time;durP1;ratioP1;P1;durP2;ratioP2;P2;SDS_P1;SDS_P2;PMS_P1;PMS_P2;Temp;Humidity;BMP_temperature;BMP_pressure;BME280_temperature;BME280_humidity;BME280_pressure;Samples;Min_cycle;Max_cycle;Signal;HPM_P1;HPM_P2
2022/05/10 00:02:10;;;;;;;22.42;7.32;;;;;;;;;;5088891;28;20130;-74
2022/05/10 00:04:36;;;;;;;21.33;8.13;;;;;;;;;;5089242;28;20126;-76
2022/05/10 00:07:02;;;;;;;19.20;8.07;;;;;;;;;;5054162;28;20056;-74
2022/05/10 00:09:29;;;;;;;;;;;;;;;;;;5049450;28;20126;-77
2022/05/10 00:11:56;;;;;;;25.25;8.93;;;;;;;;;;5052494;28;19929;-75
2022/05/10 00:14:22;;;;;;;24.13;8.60;;;;;;;;;;5050325;28;20109;-75
2022/05/10 00:16:51;;;;;;;;;;;;;;;;;;5068575;28;20053;-75
2022/05/10 00:19:18;;;;;;;24.58;8.68;;;;;;;;;;5067732;28;19973;-74
2022/05/10 00:21:44;;;;;;;18.77;8.15;;;;;;;;;;5068833;28;20052;-74
2022/05/10 00:24:10;;;;;;;;;;;;;;;;;;5070603;28;20467;-76
2022/05/10 00:26:36;;;;;;;19.83;8.25;;;;;;;;;;5089196;28;19920;-75
2022/05/10 00:29:02;;;;;;;24.20;8.90;;;;;;;;;;5041156;28;20441;-74
2022/05/10 00:31:29;;;;;;;23.90;9.60;;;;;;;;;;5068433;28;20044;-75
2022/05/10 00:33:55;;;;;;;21.92;9.85;;;;;;;;;;5073713;28;20044;-76
2022/05/10 00:36:23;;;;;;;21.55;8.85;;;;;;;;;;5032874;28;20349;-75
2022/05/10 00:38:49;;;;;;;23.08;9.70;;;;;;;;;;5068978;28;20040;-75
2022/05/10 00:41:24;;;;;;;19.40;8.73;;;;;;;;;;5050081;28;20501;-77
2022/05/10 00:43:53;;;;;;;24.00;9.60;;;;;;;;;;5069841;28;20052;-76
2022/05/10 00:46:31;;;;;;;21.88;9.52;;;;;;;;;;5049118;28;20370;-75
2022/05/10 00:48:57;;;;;;;22.50;8.98;;;;;;;;;;5068106;28;20036;-76
2022/05/10 00:51:26;;;;;;;19.42;9.32;;;;;;;;;;5078739;28;20063;-76
2022/05/10 00:53:52;;;;;;;23.35;8.57;;;;;;;;;;5073317;28;20045;-76
2022/05/10 00:56:24;;;;;;;18.88;8.73;;;;;;;;;;5067812;28;20045;-76
2022/05/10 00:58:54;;;;;;;26.20;9.10;;;;;;;;;;5068662;28;20104;-75
2022/05/10 01:01:24;;;;;;;21.52;9.00;;;;;;;;;;5071967;28;20048;-75
2022/05/10 01:04:16;;;;;;;22.05;8.70;;;;;;;;;;5067217;28;20393;-76
2022/05/10 01:06:50;;;;;;;23.58;8.80;;;;;;;;;;5060243;28;20152;-76
2022/05/10 01:09:37;;;;;;;19.45;8.40;;;;;;;;;;5066719;28;20045;-76
2022/05/10 01:12:03;;;;;;;21.90;8.70;;;;;;;;;;5068014;28;20060;-75
2022/05/10 01:14:36;;;;;;;19.80;7.68;;;;;;;;;;5073493;28;20041;-76
2022/05/10 01:17:02;;;;;;;20.35;8.25;;;;;;;;;;5080581;28;20128;-76
2022/05/10 01:19:28;;;;;;;20.27;8.25;;;;;;;;;;5072482;28;20036;-75
2022/05/10 01:21:57;;;;;;;22.35;8.80;;;;;;;;;;5067402;28;20198;-76
2022/05/10 01:24:29;;;;;;;19.02;7.53;;;;;;;;;;5067851;28;20049;-76
2022/05/10 01:26:55;;;;;;;17.98;7.78;;;;;;;;;;5065769;28;20066;-76
2022/05/10 01:29:30;;;;;;;21.20;7.97;;;;;;;;;;5072750;28;20106;-75
2022/05/10 01:34:44;;;;;;;18.85;8.18;;;;;;;;;;5048355;28;20128;-75
2022/05/10 01:37:13;;;;;;;21.40;7.60;;;;;;;;;;5059184;28;20102;-76
2022/05/10 01:40:12;;;;;;;16.17;7.35;;;;;;;;;;5070790;28;20045;-76
2022/05/10 01:42:40;;;;;;;22.20;7.68;;;;;;;;;;5015234;28;20446;-75
2022/05/10 01:45:09;;;;;;;18.30;7.35;;;;;;;;;;5085520;28;20070;-75
2022/05/10 01:47:41;;;;;;;17.05;7.28;;;;;;;;;;5068018;28;20151;-74
2022/05/10 01:50:18;;;;;;;20.98;7.75;;;;;;;;;;5051116;28;20041;-75
2022/05/10 01:52:44;;;;;;;;;;;;;;;;;;5060393;28;20095;-73
2022/05/10 01:55:13;;;;;;;24.30;7.20;;;;;;;;;;5071423;28;19920;-75
2022/05/10 01:57:39;;;;;;;16.55;6.50;;;;;;;;;;5077937;28;20040;-75
2022/05/10 02:00:05;;;;;;;;;;;;;;;;;;5069597;28;20488;-75
2022/05/10 02:02:33;;;;;;;22.30;7.10;;;;;;;;;;5070511;28;20028;-75
2022/05/10 02:05:01;;;;;;;16.25;6.82;;;;;;;;;;5076294;28;20040;-76
2022/05/10 02:07:27;;;;;;;18.23;6.78;;;;;;;;;;5052845;28;20080;-75
2022/05/10 02:10:00;;;;;;;15.80;7.13;;;;;;;;;;5071399;28;20049;-74
2022/05/10 02:12:40;;;;;;;22.05;7.70;;;;;;;;;;5070792;28;20041;-74
2022/05/10 02:15:06;;;;;;;22.52;7.43;;;;;;;;;;5062474;28;20040;-74
2022/05/10 02:17:42;;;;;;;21.10;7.70;;;;;;;;;;5070494;28;20492;-73
2022/05/10 02:20:30;;;;;;;21.70;7.00;;;;;;;;;;5070316;28;20037;-74
2022/05/10 02:23:22;;;;;;;18.75;7.13;;;;;;;;;;5070135;28;20063;-73
2022/05/10 02:25:53;;;;;;;19.27;8.05;;;;;;;;;;5064021;28;20134;-73
2022/05/10 02:28:39;;;;;;;22.38;8.15;;;;;;;;;;5087974;28;20065;-73
2022/05/10 02:31:11;;;;;;;21.27;7.82;;;;;;;;;;5051108;28;20102;-74
2022/05/10 02:33:38;;;;;;;22.08;7.93;;;;;;;;;;5038077;28;20040;-73
2022/05/10 02:36:04;;;;;;;19.23;7.28;;;;;;;;;;5077609;28;20048;-73
2022/05/10 02:38:30;;;;;;;;;;;;;;;;;;5069472;28;20052;-73
2022/05/10 02:40:58;;;;;;;20.27;8.07;;;;;;;;;;5073029;28;19920;-74
2022/05/10 02:43:26;;;;;;;18.75;8.20;;;;;;;;;;5090587;28;20146;-74
2022/05/10 02:45:54;;;;;;;19.92;8.02;;;;;;;;;;5084567;28;20464;-73
2022/05/10 02:48:27;;;;;;;21.70;8.18;;;;;;;;;;5072292;28;20146;-72
2022/05/10 02:50:53;;;;;;;19.08;7.85;;;;;;;;;;5082849;28;20072;-74
2022/05/10 02:53:19;;;;;;;18.65;7.65;;;;;;;;;;5069901;28;20045;-74
2022/05/10 02:55:51;;;;;;;24.92;7.93;;;;;;;;;;5068954;28;20094;-74
2022/05/10 02:58:30;;;;;;;20.50;7.38;;;;;;;;;;5068790;28;20045;-73
2022/05/10 03:01:28;;;;;;;20.55;7.57;;;;;;;;;;5070498;28;20087;-73
2022/05/10 03:03:54;;;;;;;22.20;8.55;;;;;;;;;;5019657;28;20052;-73
2022/05/10 03:06:22;;;;;;;14.95;7.72;;;;;;;;;;5069074;28;20129;-73
2022/05/10 03:08:48;;;;;;;17.83;8.55;;;;;;;;;;5052890;28;20048;-74
2022/05/10 03:11:14;;;;;;;19.90;8.73;;;;;;;;;;5070190;28;20234;-73
2022/05/10 03:13:41;;;;;;;20.27;8.30;;;;;;;;;;5073890;28;20405;-73
2022/05/10 03:16:07;;;;;;;14.95;7.75;;;;;;;;;;5090235;28;20048;-74
2022/05/10 03:18:33;;;;;;;19.73;8.10;;;;;;;;;;5078699;28;20120;-73
2022/05/10 03:20:59;;;;;;;18.48;7.70;;;;;;;;;;5090339;28;20052;-74
2022/05/10 03:23:27;;;;;;;21.52;7.90;;;;;;;;;;5090017;28;20079;-72
2022/05/10 03:25:54;;;;;;;22.08;9.25;;;;;;;;;;5090132;28;20180;-73
2022/05/10 03:28:20;;;;;;;21.83;9.43;;;;;;;;;;5083121;28;20048;-73
2022/05/10 03:30:47;;;;;;;21.13;8.55;;;;;;;;;;5063661;28;20047;-74
2022/05/10 03:33:13;;;;;;;18.83;7.55;;;;;;;;;;5069705;28;20143;-75
2022/05/10 03:35:39;;;;;;;18.55;8.10;;;;;;;;;;5069078;28;20084;-74
2022/05/10 03:38:05;;;;;;;18.27;7.88;;;;;;;;;;5062617;28;20048;-74
2022/05/10 03:40:31;;;;;;;24.40;9.18;;;;;;;;;;5086068;28;20136;-72
2022/05/10 03:42:57;;;;;;;21.40;9.10;;;;;;;;;;5070675;28;20078;-74
2022/05/10 03:45:23;;;;;;;19.10;8.82;;;;;;;;;;5069824;28;20041;-74
2022/05/10 03:47:49;;;;;;;;;;;;;;;;;;5068015;28;20049;-73
2022/05/10 03:50:16;;;;;;;24.92;9.43;;;;;;;;;;5083082;28;19932;-74
2022/05/10 03:52:42;;;;;;;18.45;9.38;;;;;;;;;;5067103;28;20395;-74
2022/05/10 03:55:09;;;;;;;17.67;9.35;;;;;;;;;;5069175;28;20123;-74
2022/05/10 03:57:36;;;;;;;20.90;9.35;;;;;;;;;;5031901;28;20052;-73
2022/05/10 04:00:02;;;;;;;;;;;;;;;;;;5062217;28;20040;-73
2022/05/10 04:02:28;;;;;;;21.98;9.93;;;;;;;;;;5068197;28;19947;-74
2022/05/10 04:04:54;;;;;;;19.00;9.23;;;;;;;;;;5067286;28;20114;-73
2022/05/10 04:07:20;;;;;;;21.95;10.00;;;;;;;;;;5066857;28;20110;-74
2022/05/10 04:09:46;;;;;;;26.70;9.38;;;;;;;;;;5054359;28;20040;-72
2022/05/10 04:12:12;;;;;;;20.65;9.02;;;;;;;;;;5068500;28;20138;-73
2022/05/10 04:14:38;;;;;;;20.85;9.88;;;;;;;;;;5067248;28;20144;-72
2022/05/10 04:17:04;;;;;;;19.05;9.05;;;;;;;;;;5066796;28;20059;-72
2022/05/10 04:19:30;;;;;;;24.80;10.70;;;;;;;;;;5071181;28;20082;-71
2022/05/10 04:21:56;;;;;;;22.63;10.15;;;;;;;;;;5047810;28;20445;-72
2022/05/10 04:24:23;;;;;;;24.02;9.50;;;;;;;;;;5067612;28;20048;-72
2022/05/10 04:26:49;;;;;;;;;;;;;;;;;;5069421;28;20087;-72
2022/05/10 04:29:15;;;;;;;33.13;10.48;;;;;;;;;;5058342;28;19925;-72
2022/05/10 04:31:41;;;;;;;;;;;;;;;;;;5067432;28;20381;-72
2022/05/10 04:34:07;;;;;;;23.02;10.13;;;;;;;;;;5071681;28;19920;-72
2022/05/10 04:36:34;;;;;;;18.90;10.40;;;;;;;;;;5080302;28;20175;-72
2022/05/10 04:39:00;;;;;;;28.35;10.73;;;;;;;;;;5067196;28;20071;-73
2022/05/10 04:41:28;;;;;;;22.98;10.07;;;;;;;;;;5066152;28;20124;-73
2022/05/10 04:43:58;;;;;;;22.15;10.15;;;;;;;;;;5067572;28;20457;-72
2022/05/10 04:46:24;;;;;;;22.27;9.85;;;;;;;;;;5084647;28;20048;-72
2022/05/10 04:48:50;;;;;;;20.88;9.90;;;;;;;;;;5065934;28;20175;-72
2022/05/10 04:51:17;;;;;;;21.10;9.43;;;;;;;;;;5049225;28;20053;-72
2022/05/10 04:53:43;;;;;;;23.73;10.15;;;;;;;;;;5084608;28;20050;-72
2022/05/10 04:56:09;;;;;;;;;;;;;;;;;;5067191;28;20040;-72
2022/05/10 04:58:35;;;;;;;23.52;10.38;;;;;;;;;;5065568;28;20037;-72
2022/05/10 05:01:03;;;;;;;26.67;11.13;;;;;;;;;;5065461;28;20097;-72
2022/05/10 05:03:29;;;;;;;22.95;10.45;;;;;;;;;;5079478;28;20210;-72
2022/05/10 05:05:55;;;;;;;25.90;10.77;;;;;;;;;;5072615;28;20092;-74
2022/05/10 05:08:21;;;;;;;26.13;10.90;;;;;;;;;;5045611;28;20055;-72
2022/05/10 05:10:47;;;;;;;22.77;10.52;;;;;;;;;;5065724;28;20172;-72
2022/05/10 05:13:14;;;;;;;21.17;10.88;;;;;;;;;;5070154;28;20464;-72
2022/05/10 05:15:40;;;;;;;22.20;11.15;;;;;;;;;;5071227;28;20094;-72
2022/05/10 05:18:08;;;;;;;26.17;11.70;;;;;;;;;;5077558;28;20117;-73
2022/05/10 05:20:34;;;;;;;26.27;11.18;;;;;;;;;;5069949;28;20052;-75
2022/05/10 05:23:01;;;;;;;26.60;11.60;;;;;;;;;;5070817;28;20116;-72
2022/05/10 05:25:27;;;;;;;21.27;11.35;;;;;;;;;;5068953;28;20131;-73
2022/05/10 05:27:53;;;;;;;22.17;11.25;;;;;;;;;;5066559;28;20120;-72
2022/05/10 05:30:19;;;;;;;22.77;11.02;;;;;;;;;;5077965;28;20156;-76
2022/05/10 05:32:46;;;;;;;23.58;11.35;;;;;;;;;;5063659;28;20112;-71
2022/05/10 05:35:13;;;;;;;24.08;11.27;;;;;;;;;;5070938;28;20044;-72
2022/05/10 05:37:41;;;;;;;22.83;11.25;;;;;;;;;;5067250;28;20155;-73
2022/05/10 05:40:11;;;;;;;22.58;10.93;;;;;;;;;;5068352;28;20044;-72
2022/05/10 05:42:38;;;;;;;23.17;11.63;;;;;;;;;;5057543;28;20110;-72
2022/05/10 05:45:05;;;;;;;25.13;11.80;;;;;;;;;;5058294;28;20129;-76
2022/05/10 05:47:31;;;;;;;25.15;11.55;;;;;;;;;;5062352;28;20523;-73
2022/05/10 05:49:58;;;;;;;32.75;15.85;;;;;;;;;;5053751;28;20041;-75
2022/05/10 05:52:24;;;;;;;;;;;;;;;;;;5080643;28;20056;-78
2022/05/10 05:54:50;;;;;;;21.77;11.25;;;;;;;;;;5068878;28;19943;-73
2022/05/10 05:57:16;;;;;;;21.85;10.60;;;;;;;;;;5081168;28;20040;-74
2022/05/10 05:59:42;;;;;;;24.17;11.40;;;;;;;;;;5087209;28;20036;-72
2022/05/10 06:02:13;;;;;;;28.17;11.15;;;;;;;;;;5082999;28;20055;-72
2022/05/10 06:04:39;;;;;;;23.85;11.98;;;;;;;;;;5084743;28;20072;-73
2022/05/10 06:07:05;;;;;;;25.13;11.95;;;;;;;;;;5076499;28;20113;-72
2022/05/10 06:09:31;;;;;;;25.00;11.15;;;;;;;;;;5081687;28;20045;-70
2022/05/10 06:11:57;;;;;;;24.77;11.73;;;;;;;;;;5068588;28;20098;-72
2022/05/10 06:14:23;;;;;;;25.95;12.15;;;;;;;;;;5069942;28;20472;-70
2022/05/10 06:16:49;;;;;;;24.98;12.45;;;;;;;;;;5051498;28;20048;-70
2022/05/10 06:19:15;;;;;;;24.65;10.70;;;;;;;;;;5067731;28;20088;-70
2022/05/10 06:21:43;;;;;;;23.48;12.45;;;;;;;;;;5058909;28;20048;-71
2022/05/10 06:24:10;;;;;;;23.38;11.32;;;;;;;;;;5072182;28;20093;-71
2022/05/10 06:26:36;;;;;;;22.55;11.30;;;;;;;;;;5069942;28;20052;-71
2022/05/10 06:29:03;;;;;;;21.20;11.23;;;;;;;;;;5069421;28;20119;-71
2022/05/10 06:31:29;;;;;;;22.83;11.07;;;;;;;;;;5067330;28;20261;-71
2022/05/10 06:33:55;;;;;;;23.55;11.52;;;;;;;;;;5067221;28;20079;-70
2022/05/10 06:36:21;;;;;;;26.50;11.35;;;;;;;;;;5069469;28;20062;-70
2022/05/10 06:38:47;;;;;;;20.65;10.73;;;;;;;;;;5065851;28;20056;-71
2022/05/10 06:41:13;;;;;;;22.40;10.85;;;;;;;;;;5069405;28;20052;-70
2022/05/10 06:43:39;;;;;;;23.45;10.45;;;;;;;;;;5071888;28;20507;-70
2022/05/10 06:46:08;;;;;;;20.48;9.27;;;;;;;;;;5079180;28;20051;-69
2022/05/10 06:48:34;;;;;;;24.48;10.60;;;;;;;;;;5087737;28;20067;-68
2022/05/10 06:51:04;;;;;;;23.70;10.23;;;;;;;;;;5070829;28;20460;-69
2022/05/10 06:53:30;;;;;;;18.05;9.77;;;;;;;;;;5058199;28;20045;-68
2022/05/10 06:55:56;;;;;;;23.65;9.63;;;;;;;;;;5053094;28;20048;-69
2022/05/10 06:58:22;;;;;;;20.40;9.00;;;;;;;;;;5069896;28;20131;-70
2022/05/10 07:00:53;;;;;;;;;;;;;;;;;;5069771;28;20127;-71
2022/05/10 07:03:31;;;;;;;18.92;8.80;;;;;;;;;;5069364;28;19920;-69
2022/05/10 07:05:58;;;;;;;17.88;8.57;;;;;;;;;;5069188;28;20075;-70
2022/05/10 07:08:24;;;;;;;20.65;9.05;;;;;;;;;;5069763;28;20094;-70
2022/05/10 07:10:50;;;;;;;28.95;9.80;;;;;;;;;;5069536;28;20163;-70
2022/05/10 07:13:20;;;;;;;20.83;9.07;;;;;;;;;;5068913;28;20044;-69
2022/05/10 07:15:46;;;;;;;17.83;8.30;;;;;;;;;;5069684;28;20048;-70
2022/05/10 07:18:12;;;;;;;;;;;;;;;;;;5069204;28;20475;-68
2022/05/10 07:20:39;;;;;;;18.30;7.88;;;;;;;;;;5069138;28;19920;-70
2022/05/10 07:23:05;;;;;;;17.55;7.60;;;;;;;;;;5068388;28;20350;-69
2022/05/10 07:25:31;;;;;;;17.73;7.82;;;;;;;;;;5067791;28;20045;-73
2022/05/10 07:27:57;;;;;;;;;;;;;;;;;;5068393;28;20052;-73
2022/05/10 07:30:24;;;;;;;19.92;7.95;;;;;;;;;;5067159;28;20008;-74
2022/05/10 07:32:50;;;;;;;16.35;7.53;;;;;;;;;;5067557;28;20044;-72
2022/05/10 07:35:16;;;;;;;;;;;;;;;;;;5067433;28;20133;-70
2022/05/10 07:37:42;;;;;;;21.60;7.75;;;;;;;;;;5067050;28;20383;-71
2022/05/10 07:40:08;;;;;;;;;;;;;;;;;;5067963;28;20044;-71
2022/05/10 07:42:36;;;;;;;18.00;7.97;;;;;;;;;;5068463;28;20237;-71
2022/05/10 07:45:03;;;;;;;16.30;7.38;;;;;;;;;;5068027;28;20396;-72
2022/05/10 07:47:29;;;;;;;21.27;8.25;;;;;;;;;;5068815;28;20121;-73
2022/05/10 07:49:55;;;;;;;19.77;7.90;;;;;;;;;;5068898;28;20071;-73
2022/05/10 07:52:21;;;;;;;14.52;6.38;;;;;;;;;;5068264;28;20154;-70
2022/05/10 07:54:47;;;;;;;22.00;7.50;;;;;;;;;;5068553;28;20243;-70
2022/05/10 07:57:13;;;;;;;19.52;7.50;;;;;;;;;;5067927;28;20052;-70
2022/05/10 07:59:39;;;;;;;17.05;6.90;;;;;;;;;;5066636;28;20387;-70
2022/05/10 08:02:06;;;;;;;20.92;6.95;;;;;;;;;;5067810;28;20435;-72
2022/05/10 08:04:32;;;;;;;24.00;8.05;;;;;;;;;;5068457;28;20059;-70
2022/05/10 08:06:58;;;;;;;19.60;7.10;;;;;;;;;;5068472;28;20133;-72
2022/05/10 08:09:24;;;;;;;23.25;7.18;;;;;;;;;;5067851;28;20060;-72
2022/05/10 08:11:50;;;;;;;15.02;6.30;;;;;;;;;;5068181;28;20116;-73
2022/05/10 08:14:16;;;;;;;14.93;6.50;;;;;;;;;;5068462;28;20113;-72
2022/05/10 08:16:42;;;;;;;18.35;6.35;;;;;;;;;;5067946;28;20090;-73
2022/05/10 08:19:08;;;;;;;;;;;;;;;;;;5068346;28;20152;-73
2022/05/10 08:21:35;;;;;;;16.65;6.30;;;;;;;;;;5068735;28;19990;-72
2022/05/10 08:24:00;;;;;;;;;;;;;;;;;;5068446;28;20041;-75
2022/05/10 08:26:27;;;;;;;17.10;6.18;;;;;;;;;;5067783;28;20086;-71
2022/05/10 08:28:53;;;;;;;18.20;5.90;;;;;;;;;;5066169;28;20044;-71
2022/05/10 08:31:20;;;;;;;14.35;5.70;;;;;;;;;;5067448;28;20055;-71
2022/05/10 08:33:47;;;;;;;17.75;6.47;;;;;;;;;;5066412;28;20059;-70
2022/05/10 08:36:13;;;;;;;17.10;5.80;;;;;;;;;;5067267;28;20051;-72
2022/05/10 08:38:39;;;;;;;;;;;;;;;;;;5067834;28;20483;-69
2022/05/10 08:41:22;;;;;;;16.65;5.82;;;;;;;;;;5065700;28;19920;-70
2022/05/10 08:43:55;;;;;;;17.92;5.90;;;;;;;;;;5067489;28;20131;-71
2022/05/10 08:46:26;;;;;;;15.82;5.63;;;;;;;;;;5059395;28;20413;-72
2022/05/10 08:48:54;;;;;;;14.73;5.03;;;;;;;;;;5070118;28;20226;-72
2022/05/10 08:51:22;;;;;;;17.77;5.70;;;;;;;;;;5065618;28;20052;-73
2022/05/10 08:53:49;;;;;;;14.43;5.72;;;;;;;;;;5067066;28;20045;-73
2022/05/10 08:56:19;;;;;;;13.57;5.43;;;;;;;;;;5065707;28;20123;-72
2022/05/10 08:58:54;;;;;;;20.25;5.45;;;;;;;;;;5066285;28;20484;-73
2022/05/10 09:01:26;;;;;;;15.85;5.43;;;;;;;;;;5057939;28;20072;-67
2022/05/10 09:04:04;;;;;;;17.17;5.38;;;;;;;;;;5077573;28;20549;-69
2022/05/10 09:06:40;;;;;;;16.48;6.53;;;;;;;;;;5084330;28;20047;-69
2022/05/10 09:09:25;;;;;;;13.38;4.53;;;;;;;;;;5068832;28;20047;-71
2022/05/10 09:12:03;;;;;;;13.43;4.55;;;;;;;;;;5070156;28;20460;-68
2022/05/10 09:14:33;;;;;;;14.07;4.78;;;;;;;;;;5079514;28;20051;-70
2022/05/10 09:17:00;;;;;;;16.25;5.07;;;;;;;;;;5087137;28;20147;-70
2022/05/10 09:19:39;;;;;;;14.60;4.32;;;;;;;;;;5083650;28;20044;-69
2022/05/10 09:22:12;;;;;;;20.42;4.65;;;;;;;;;;5065423;28;20088;-69
2022/05/10 09:24:49;;;;;;;17.00;4.78;;;;;;;;;;5078291;28;20149;-70
2022/05/10 09:27:16;;;;;;;14.43;4.72;;;;;;;;;;5076688;28;20533;-72
2022/05/10 09:29:50;;;;;;;14.57;4.63;;;;;;;;;;5065497;28;20128;-72
2022/05/10 09:35:09;;;;;;;20.13;5.10;;;;;;;;;;5065212;28;20124;-86
2022/05/10 09:37:38;;;;;;;15.40;4.70;;;;;;;;;;5030379;28;20052;-75
2022/05/10 09:40:25;;;;;;;14.80;4.95;;;;;;;;;;5084344;28;20479;-82
2022/05/10 09:42:52;;;;;;;16.25;4.93;;;;;;;;;;5062686;28;20075;-81
2022/05/10 09:45:23;;;;;;;18.42;5.43;;;;;;;;;;5050884;28;20089;-78
2022/05/10 09:48:02;;;;;;;17.52;5.05;;;;;;;;;;5065418;28;20131;-80
2022/05/10 09:50:35;;;;;;;17.23;5.38;;;;;;;;;;5065766;28;20119;-79
2022/05/10 09:53:25;;;;;;;28.77;6.00;;;;;;;;;;5065241;28;20334;-75
2022/05/10 09:56:03;;;;;;;17.23;5.28;;;;;;;;;;5058274;28;20056;-81
2022/05/10 09:58:34;;;;;;;18.88;6.07;;;;;;;;;;5065770;28;20079;-74
2022/05/10 10:01:03;;;;;;;13.65;5.60;;;;;;;;;;5069976;28;20113;-70
2022/05/10 10:03:32;;;;;;;21.80;5.45;;;;;;;;;;5068315;28;20051;-77
2022/05/10 10:06:16;;;;;;;19.67;6.35;;;;;;;;;;5085060;28;20055;-77
2022/05/10 10:08:42;;;;;;;17.80;6.28;;;;;;;;;;5069363;28;20040;-72
2022/05/10 10:11:08;;;;;;;;;;;;;;;;;;5081457;28;20048;-77
2022/05/10 10:13:36;;;;;;;29.52;6.45;;;;;;;;;;5085017;28;20260;-84
2022/05/10 10:16:14;;;;;;;18.77;5.78;;;;;;;;;;5070116;28;20059;-78
2022/05/10 10:18:43;;;;;;;18.13;7.00;;;;;;;;;;5035260;28;20469;-76
2022/05/10 10:21:12;;;;;;;23.35;6.90;;;;;;;;;;5067341;28;20060;-79
2022/05/10 10:23:39;;;;;;;16.02;7.10;;;;;;;;;;5050450;28;20056;-79
2022/05/10 10:26:14;;;;;;;17.17;6.30;;;;;;;;;;5080588;28;20056;-85
2022/05/10 10:28:49;;;;;;;14.50;6.40;;;;;;;;;;5071098;28;20123;-88
2022/05/10 10:31:26;;;;;;;18.52;6.95;;;;;;;;;;5063596;28;20068;-74
2022/05/10 10:34:00;;;;;;;18.60;6.63;;;;;;;;;;5067589;28;20521;-90
2022/05/10 10:36:29;;;;;;;18.00;7.10;;;;;;;;;;5081674;28;20072;-70
2022/05/10 10:38:57;;;;;;;18.38;7.82;;;;;;;;;;5066388;28;20186;-66
2022/05/10 10:41:42;;;;;;;19.13;7.85;;;;;;;;;;5069462;28;20111;-66
2022/05/10 10:44:13;;;;;;;19.10;7.78;;;;;;;;;;5069990;28;20114;-69
2022/05/10 10:46:43;;;;;;;21.05;8.85;;;;;;;;;;5069078;28;20044;-70
2022/05/10 10:49:10;;;;;;;31.60;8.35;;;;;;;;;;5069732;28;20102;-72
2022/05/10 10:51:36;;;;;;;;;;;;;;;;;;5069389;28;20048;-71
2022/05/10 10:54:02;;;;;;;20.38;8.90;;;;;;;;;;5066876;28;19974;-67
2022/05/10 10:56:47;;;;;;;28.90;9.10;;;;;;;;;;5049613;28;20138;-67
2022/05/10 10:59:36;;;;;;;19.02;8.27;;;;;;;;;;5085766;28;20039;-75
2022/05/10 11:02:21;;;;;;;30.95;8.18;;;;;;;;;;5080240;28;20154;-79
2022/05/10 11:04:50;;;;;;;22.10;8.40;;;;;;;;;;5068841;28;20059;-74
2022/05/10 11:07:28;;;;;;;21.27;8.38;;;;;;;;;;5080154;28;20504;-73
2022/05/10 11:10:03;;;;;;;18.33;8.20;;;;;;;;;;5068317;28;20064;-83
2022/05/10 11:12:48;;;;;;;18.60;7.95;;;;;;;;;;5050969;28;20060;-77
2022/05/10 11:15:16;;;;;;;14.07;6.25;;;;;;;;;;5068876;28;20082;-76
2022/05/10 11:17:54;;;;;;;14.90;6.53;;;;;;;;;;5050025;28;20433;-81
2022/05/10 11:20:28;;;;;;;19.50;6.95;;;;;;;;;;5049151;28;20131;-80
2022/05/10 11:22:56;;;;;;;19.92;5.53;;;;;;;;;;5067669;28;20125;-79
2022/05/10 11:25:41;;;;;;;18.23;5.75;;;;;;;;;;5065878;28;20128;-78
2022/05/10 11:28:08;;;;;;;22.95;5.82;;;;;;;;;;5066660;28;20398;-79
2022/05/10 11:30:33;;;;;;;;;;;;;;;;;;5069112;28;20044;-78
2022/05/10 11:33:12;;;;;;;12.75;4.90;;;;;;;;;;5055990;28;19920;-79
2022/05/10 11:35:57;;;;;;;16.48;5.38;;;;;;;;;;5064665;28;20500;-76
2022/05/10 11:38:46;;;;;;;14.40;4.85;;;;;;;;;;5075541;28;20055;-75
2022/05/10 11:41:30;;;;;;;13.85;5.30;;;;;;;;;;5065974;28;20201;-77
2022/05/10 11:43:56;;;;;;;16.30;6.80;;;;;;;;;;5047754;28;20052;-74
2022/05/10 11:46:22;;;;;;;;;;;;;;;;;;5046593;28;20127;-78
2022/05/10 11:48:51;;;;;;;13.35;5.45;;;;;;;;;;5047375;28;20071;-72
2022/05/10 11:51:38;;;;;;;17.58;6.30;;;;;;;;;;5047837;28;20049;-72
2022/05/10 11:54:04;;;;;;;;;;;;;;;;;;5070101;28;20143;-77
2022/05/10 11:56:34;;;;;;;20.05;7.28;;;;;;;;;;5065820;28;20330;-74
2022/05/10 11:59:04;;;;;;;16.75;7.88;;;;;;;;;;5066642;28;20473;-70
2022/05/10 12:01:42;;;;;;;17.77;8.75;;;;;;;;;;5067710;28;20071;-76
2022/05/10 12:04:28;;;;;;;16.30;8.32;;;;;;;;;;5066619;28;20444;-70
2022/05/10 12:06:55;;;;;;;24.77;8.77;;;;;;;;;;5064906;28;20080;-69
2022/05/10 12:09:40;;;;;;;15.10;7.68;;;;;;;;;;5066399;28;20040;-66
2022/05/10 12:12:06;;;;;;;22.83;9.32;;;;;;;;;;5048820;28;20112;-65
2022/05/10 12:23:18;;;;;;;21.08;9.77;;;;;;;;;;5079666;28;20055;-67
2022/05/10 12:25:44;;;;;;;;;;;;;;;;;;5049938;28;20055;-66
2022/05/10 12:28:10;;;;;;;24.85;8.95;;;;;;;;;;5049304;28;20079;-67
2022/05/10 12:30:37;;;;;;;21.05;9.25;;;;;;;;;;5066497;28;20138;-73
2022/05/10 12:33:22;;;;;;;22.65;8.50;;;;;;;;;;5076607;28;20084;-71
2022/05/10 12:35:50;;;;;;;21.33;8.20;;;;;;;;;;5065785;28;20547;-68
2022/05/10 12:38:35;;;;;;;21.67;10.13;;;;;;;;;;5070188;28;20044;-69
2022/05/10 12:41:05;;;;;;;26.00;8.23;;;;;;;;;;5079545;28;20049;-74
2022/05/10 12:43:44;;;;;;;20.45;7.40;;;;;;;;;;5071925;28;20449;-67
2022/05/10 12:46:17;;;;;;;18.90;6.50;;;;;;;;;;5074364;28;20346;-67
2022/05/10 12:48:57;;;;;;;16.50;7.10;;;;;;;;;;5067379;28;20073;-70
2022/05/10 12:51:30;;;;;;;17.75;5.80;;;;;;;;;;5050644;28;20125;-70
2022/05/10 12:54:01;;;;;;;17.30;5.60;;;;;;;;;;5067591;28;20078;-69
2022/05/10 12:56:47;;;;;;;23.25;4.95;;;;;;;;;;5069110;28;20062;-70
2022/05/10 12:59:25;;;;;;;25.58;4.55;;;;;;;;;;5074240;28;20049;-71
2022/05/10 13:01:54;;;;;;;21.08;4.93;;;;;;;;;;5058208;28;20145;-74
2022/05/10 13:04:21;;;;;;;21.33;4.72;;;;;;;;;;5067377;28;20049;-74
2022/05/10 13:06:59;;;;;;;22.42;4.35;;;;;;;;;;5070801;28;20115;-68
2022/05/10 13:09:32;;;;;;;13.90;3.72;;;;;;;;;;5058519;28;20055;-75
2022/05/10 13:11:58;;;;;;;35.45;5.38;;;;;;;;;;5053864;28;20464;-67
2022/05/10 13:14:24;;;;;;;;;;;;;;;;;;5067541;28;20109;-72
2022/05/10 13:16:51;;;;;;;15.00;3.50;;;;;;;;;;5048338;28;19920;-68
2022/05/10 13:19:19;;;;;;;17.50;4.20;;;;;;;;;;5066948;28;20075;-71
2022/05/10 13:21:45;;;;;;;15.18;3.50;;;;;;;;;;5066143;28;20052;-69
2022/05/10 13:24:11;;;;;;;;;;;;;;;;;;5062309;28;20105;-66
2022/05/10 13:26:49;;;;;;;20.30;4.97;;;;;;;;;;5065020;28;19920;-66
2022/05/10 13:29:15;;;;;;;18.67;3.45;;;;;;;;;;5048680;28;20098;-70
2022/05/10 13:31:41;;;;;;;;;;;;;;;;;;5067193;28;20113;-70
2022/05/10 13:34:13;;;;;;;13.60;3.47;;;;;;;;;;5068910;28;19928;-68
2022/05/10 13:36:41;;;;;;;21.50;3.47;;;;;;;;;;5035619;28;20044;-64
2022/05/10 13:39:07;;;;;;;18.75;3.15;;;;;;;;;;5051727;28;20158;-72
2022/05/10 13:41:36;;;;;;;12.45;2.80;;;;;;;;;;5070417;28;20135;-67
2022/05/10 13:44:15;;;;;;;9.75;2.42;;;;;;;;;;5069920;28;20048;-72
2022/05/10 13:46:46;;;;;;;7.60;2.47;;;;;;;;;;5070354;28;20045;-70
2022/05/10 13:49:23;;;;;;;8.85;2.10;;;;;;;;;;5069746;28;20205;-70
2022/05/10 13:51:53;;;;;;;8.20;2.00;;;;;;;;;;5070337;28;20120;-70
2022/05/10 13:54:34;;;;;;;12.85;2.40;;;;;;;;;;5069241;28;20145;-66
2022/05/10 13:57:18;;;;;;;7.90;2.00;;;;;;;;;;5051442;28;20441;-68
2022/05/10 13:59:45;;;;;;;8.45;1.92;;;;;;;;;;5051626;28;20449;-70
2022/05/10 14:02:12;;;;;;;8.38;1.95;;;;;;;;;;5054613;28;20529;-66
2022/05/10 14:04:45;;;;;;;12.43;2.08;;;;;;;;;;5069380;28;20372;-68
2022/05/10 14:07:14;;;;;;;10.10;2.00;;;;;;;;;;5080564;28;20119;-65
2022/05/10 14:09:42;;;;;;;14.45;2.15;;;;;;;;;;5074855;28;20123;-66
2022/05/10 14:12:21;;;;;;;10.00;1.92;;;;;;;;;;5078592;28;20459;-67
2022/05/10 14:14:47;;;;;;;9.48;2.10;;;;;;;;;;5066184;28;20040;-76
2022/05/10 14:17:13;;;;;;;;;;;;;;;;;;5051865;28;20040;-71
2022/05/10 14:19:44;;;;;;;9.77;2.30;;;;;;;;;;5069630;28;20057;-67
2022/05/10 14:22:21;;;;;;;8.10;2.08;;;;;;;;;;5065413;28;20107;-72
2022/05/10 14:24:48;;;;;;;10.05;2.10;;;;;;;;;;5068338;28;20052;-71
2022/05/10 14:27:18;;;;;;;9.77;2.20;;;;;;;;;;5067832;28;20120;-68
2022/05/10 14:29:46;;;;;;;9.65;2.40;;;;;;;;;;5059324;28;20057;-66
2022/05/10 14:32:13;;;;;;;12.60;2.53;;;;;;;;;;5067793;28;20048;-70
2022/05/10 14:34:57;;;;;;;11.95;3.13;;;;;;;;;;5069618;28;20048;-68
2022/05/10 14:37:28;;;;;;;10.75;2.90;;;;;;;;;;5080719;28;20337;-66
2022/05/10 14:39:55;;;;;;;9.65;2.53;;;;;;;;;;5069362;28;20144;-70
2022/05/10 14:42:24;;;;;;;15.00;3.53;;;;;;;;;;5073277;28;20527;-68
2022/05/10 14:44:51;;;;;;;8.90;2.65;;;;;;;;;;5067669;28;20060;-67
2022/05/10 14:47:18;;;;;;;8.85;2.50;;;;;;;;;;5072898;28;20448;-69
2022/05/10 14:49:50;;;;;;;9.07;2.30;;;;;;;;;;5082675;28;20494;-71
2022/05/10 14:52:27;;;;;;;11.50;2.65;;;;;;;;;;5068926;28;20101;-70
2022/05/10 14:54:53;;;;;;;11.48;2.50;;;;;;;;;;5050991;28;20080;-68
2022/05/10 14:57:40;;;;;;;11.00;2.30;;;;;;;;;;5079660;28;20075;-70
2022/05/10 15:00:45;;;;;;;8.93;2.30;;;;;;;;;;5065793;28;20106;-68
2022/05/10 15:03:05;;;;;;;7.55;2.58;;;;;;;;;;5074425;28;20467;-71
2022/05/10 15:05:32;;;;;;;10.00;2.58;;;;;;;;;;5064552;28;20050;-65
2022/05/10 15:07:58;;;;;;;12.02;2.60;;;;;;;;;;5085414;28;20058;-68
2022/05/10 15:10:24;;;;;;;;;;;;;;;;;;5070677;28;20740;-78